Time;durP1;ratioP1;P1;durP2;ratioP2;P2;SDS_P1;SDS_P2;PMS_P1;PMS_P2;Temp;Humidity;BMP_temperature;BMP_pressure;BME280_temperature;BME280_humidity;BME280_pressure;Samples;Min_cycle;Max_cycle;Signal;HPM_P1;HPM_P2
2023/08/10 00:01:25;;;;;;;4.20;1.48;;;14.90;1.00;;;;;;20827012;28;20048;-41
2023/08/10 00:11:26;;;;;;;5.17;1.47;;;15.00;1.00;;;;;;20832248;28;20036;-40
2023/08/10 00:21:27;;;;;;;3.95;1.80;;;15.00;1.00;;;;;;20827924;28;20075;-40
2023/08/10 00:31:28;;;;;;;3.38;1.60;;;14.90;1.00;;;;;;20828997;28;20102;-41
2023/08/10 00:41:28;;;;;;;3.17;1.70;;;14.90;1.00;;;;;;20826522;28;20120;-40
2023/08/10 00:51:29;;;;;;;3.88;1.85;;;14.90;1.00;;;;;;20829864;28;20037;-40
2023/08/10 01:01:30;;;;;;;5.10;2.35;;;14.80;1.00;;;;;;20828236;28;20508;-40
2023/08/10 01:11:37;;;;;;;5.97;2.47;;;14.80;1.00;;;;;;20817323;28;20033;-41
2023/08/10 01:21:48;;;;;;;5.97;2.77;;;14.70;1.00;;;;;;20821387;28;20041;-41
2023/08/10 01:31:49;;;;;;;5.85;2.45;;;14.50;1.00;;;;;;20823746;28;20041;-40
2023/08/10 01:41:50;;;;;;;3.25;1.92;;;14.40;1.00;;;;;;20823980;28;20075;-40
2023/08/10 01:51:53;;;;;;;4.63;2.35;;;14.20;1.00;;;;;;20822524;28;20029;-40
2023/08/10 02:01:55;;;;;;;9.50;2.45;;;14.20;1.00;;;;;;20837094;28;20125;-40
2023/08/10 02:11:56;;;;;;;6.00;2.28;;;14.10;1.00;;;;;;20838552;28;20436;-40
2023/08/10 02:21:56;;;;;;;4.65;2.35;;;13.90;1.00;;;;;;20831531;28;20055;-41
2023/08/10 02:31:57;;;;;;;5.80;2.25;;;13.80;2.30;;;;;;20837221;28;20044;-40
2023/08/10 02:41:57;;;;;;;5.18;2.55;;;13.80;6.60;;;;;;20837974;28;20393;-40
2023/08/10 02:51:58;;;;;;;5.27;2.60;;;13.70;11.50;;;;;;20841618;28;20039;-40
2023/08/10 03:01:58;;;;;;;5.32;2.45;;;13.70;20.80;;;;;;20812636;28;20045;-40
2023/08/10 03:11:59;;;;;;;5.30;2.53;;;13.70;24.90;;;;;;20835271;28;20028;-41
2023/08/10 03:21:59;;;;;;;6.40;2.58;;;13.60;29.40;;;;;;20832446;28;20048;-40
2023/08/10 03:32:00;;;;;;;6.95;3.50;;;13.50;30.00;;;;;;20806783;28;20067;-40
2023/08/10 03:42:00;;;;;;;8.20;4.50;;;13.40;35.40;;;;;;20830883;28;20049;-40
2023/08/10 03:52:02;;;;;;;6.82;4.43;;;13.60;56.00;;;;;;20836842;28;20118;-40
2023/08/10 04:02:03;;;;;;;8.38;5.53;;;13.70;78.40;;;;;;20827663;28;20055;-41
2023/08/10 04:12:03;;;;;;;7.77;4.70;;;13.90;90.10;;;;;;20827867;28;20044;-41
2023/08/10 04:22:04;;;;;;;7.65;5.25;;;14.00;94.80;;;;;;20828477;28;20475;-40
2023/08/10 04:32:04;;;;;;;10.48;5.80;;;14.10;99.80;;;;;;20826061;28;20448;-40
2023/08/10 04:42:05;;;;;;;9.43;5.93;;;14.20;99.90;;;;;;20824400;28;20099;-40
2023/08/10 04:52:07;;;;;;;10.73;6.90;;;14.30;97.20;;;;;;20829489;28;20171;-40
2023/08/10 05:02:08;;;;;;;11.13;6.28;;;14.50;81.60;;;;;;20815408;28;20044;-40
2023/08/10 05:12:09;;;;;;;8.85;5.93;;;14.70;59.50;;;;;;20823337;28;20044;-40
2023/08/10 05:22:09;;;;;;;9.27;5.80;;;14.80;48.70;;;;;;20824909;28;20068;-40
2023/08/10 05:32:10;;;;;;;7.57;4.72;;;15.10;25.10;;;;;;20823583;28;20037;-40
2023/08/10 05:42:10;;;;;;;7.20;4.70;;;15.50;2.90;;;;;;20823749;28;20048;-40
2023/08/10 05:52:11;;;;;;;6.82;4.35;;;15.70;1.00;;;;;;20816888;28;20151;-40
2023/08/10 06:02:12;;;;;;;8.95;4.75;;;15.80;1.00;;;;;;20847842;28;20048;-40
2023/08/10 06:12:12;;;;;;;6.18;4.38;;;15.80;1.00;;;;;;20840292;28;20033;-40
2023/08/10 06:22:13;;;;;;;6.43;4.03;;;16.20;1.00;;;;;;20838337;28;20381;-40
2023/08/10 06:32:13;;;;;;;7.03;3.80;;;16.60;1.00;;;;;;20843901;28;20045;-40
2023/08/10 06:42:14;;;;;;;4.88;3.05;;;16.90;1.00;;;;;;20849084;28;20056;-40
2023/08/10 06:52:15;;;;;;;5.38;2.92;;;17.10;1.00;;;;;;20865173;28;20032;-41
2023/08/10 07:02:18;;;;;;;4.45;2.60;;;17.40;1.00;;;;;;20875878;28;20049;-40
2023/08/10 07:12:19;;;;;;;4.55;2.72;;;17.60;1.00;;;;;;20876523;28;20480;-40
2023/08/10 07:22:20;;;;;;;3.55;2.30;;;17.70;1.00;;;;;;20859870;28;20068;-40
2023/08/10 07:32:21;;;;;;;4.70;2.53;;;17.60;1.00;;;;;;20848856;28;20033;-41
2023/08/10 07:42:22;;;;;;;4.95;2.33;;;17.40;1.00;;;;;;20846530;28;20474;-41
2023/08/10 07:52:22;;;;;;;4.85;3.08;;;17.50;1.00;;;;;;20844868;28;20041;-41
2023/08/10 08:02:27;;;;;;;5.88;3.97;;;17.50;1.00;;;;;;20842260;28;20278;-40
2023/08/10 08:12:28;;;;;;;9.07;5.00;;;17.70;1.00;;;;;;20842706;28;20036;-40
2023/08/10 08:22:28;;;;;;;8.40;5.25;;;18.30;1.00;;;;;;20847492;28;20099;-41
2023/08/10 08:32:29;;;;;;;9.52;6.10;;;18.50;1.00;;;;;;20840271;28;20102;-40
2023/08/10 08:42:30;;;;;;;9.00;6.15;;;18.70;1.00;;;;;;20848530;28;20528;-41
2023/08/10 08:52:31;;;;;;;11.95;7.88;;;18.90;1.00;;;;;;20851975;28;20120;-40
2023/08/10 09:02:31;;;;;;;13.30;8.75;;;19.00;1.00;;;;;;20843912;28;20052;-40
2023/08/10 09:12:37;;;;;;;15.45;9.90;;;19.30;1.00;;;;;;20849234;28;20183;-40
2023/08/10 09:22:39;;;;;;;13.25;9.25;;;20.10;1.00;;;;;;20851275;28;20072;-41
2023/08/10 09:32:40;;;;;;;14.77;9.20;;;20.20;1.00;;;;;;20841792;28;20095;-41
2023/08/10 09:42:41;;;;;;;14.60;8.63;;;20.30;1.00;;;;;;20840292;28;20068;-41
2023/08/10 09:52:43;;;;;;;12.27;8.40;;;20.40;1.00;;;;;;20836284;28;20131;-41
2023/08/10 10:02:44;;;;;;;12.68;7.95;;;20.80;1.00;;;;;;20812151;28;20098;-41
2023/08/10 10:12:49;;;;;;;11.35;7.15;;;20.80;1.00;;;;;;20860568;28;20266;-41
2023/08/10 10:22:50;;;;;;;7.25;5.03;;;20.80;1.00;;;;;;20873073;28;20515;-41
2023/08/10 10:32:51;;;;;;;8.57;5.07;;;20.90;1.00;;;;;;20879295;28;20037;-40
2023/08/10 10:43:04;;;;;;;6.03;3.58;;;21.00;1.00;;;;;;20871727;28;20045;-40
2023/08/10 10:53:07;;;;;;;4.78;3.03;;;20.90;1.00;;;;;;20875735;28;20036;-41
2023/08/10 11:03:10;;;;;;;7.03;2.97;;;20.90;1.00;;;;;;20851364;28;20057;-41
2023/08/10 11:13:11;;;;;;;4.47;2.70;;;21.00;1.00;;;;;;20846090;28;20399;-41
2023/08/10 11:23:12;;;;;;;5.35;2.97;;;21.10;1.00;;;;;;20848025;28;20378;-41
2023/08/10 11:33:14;;;;;;;5.43;3.80;;;21.30;1.00;;;;;;20848233;28;20041;-40
2023/08/10 11:43:19;;;;;;;4.22;2.67;;;21.50;1.00;;;;;;20855073;28;20053;-41
2023/08/10 11:53:21;;;;;;;4.72;2.13;;;21.50;1.00;;;;;;20871101;28;20048;-41
2023/08/10 12:03:21;;;;;;;4.22;2.65;;;21.70;1.00;;;;;;20859132;28;20052;-41
2023/08/10 12:13:22;;;;;;;3.58;2.50;;;22.00;1.00;;;;;;20851983;28;20037;-40
2023/08/10 12:23:23;;;;;;;4.35;2.15;;;22.20;1.00;;;;;;20853175;28;20044;-41
2023/08/10 12:33:23;;;;;;;6.32;2.70;;;22.40;1.00;;;;;;20855245;28;20032;-41
2023/08/10 12:43:25;;;;;;;5.10;2.20;;;22.60;1.00;;;;;;20856375;28;20053;-41
2023/08/10 12:53:26;;;;;;;3.42;1.85;;;22.70;1.00;;;;;;20850223;28;20028;-41
2023/08/10 13:03:27;;;;;;;5.73;2.67;;;22.80;1.00;;;;;;20849549;28;20076;-41
2023/08/10 13:13:28;;;;;;;4.60;2.38;;;22.80;1.00;;;;;;20854908;28;21461;-41
2023/08/10 13:23:29;;;;;;;4.17;2.80;;;22.70;1.00;;;;;;20850457;28;20049;-41
2023/08/10 13:33:31;;;;;;;4.83;2.77;;;22.60;1.00;;;;;;20841795;28;20486;-41
2023/08/10 13:43:32;;;;;;;5.20;2.70;;;22.80;1.00;;;;;;20851853;28;20049;-41
2023/08/10 13:53:32;;;;;;;4.40;2.28;;;23.00;1.00;;;;;;20857190;28;20388;-41
2023/08/10 14:03:36;;;;;;;6.43;3.30;;;23.40;1.00;;;;;;20857096;28;20044;-40
2023/08/10 14:13:36;;;;;;;4.55;2.70;;;23.50;1.00;;;;;;20854564;28;20041;-41
2023/08/10 14:23:37;;;;;;;5.13;3.65;;;23.70;1.00;;;;;;20849853;28;20099;-41
2023/08/10 14:33:38;;;;;;;6.47;4.40;;;23.70;1.00;;;;;;20852055;28;20044;-41
2023/08/10 14:43:38;;;;;;;6.80;3.85;;;23.60;1.00;;;;;;20849036;28;20055;-41
2023/08/10 14:53:39;;;;;;;4.40;3.33;;;23.50;1.00;;;;;;20848409;28;20037;-41
2023/08/10 15:03:39;;;;;;;6.43;3.90;;;23.60;1.00;;;;;;20843601;28;20043;-41
2023/08/10 15:13:40;;;;;;;5.32;3.17;;;23.50;1.00;;;;;;20825864;28;20041;-41
2023/08/10 15:23:42;;;;;;;5.43;3.35;;;23.40;1.00;;;;;;20806185;28;20049;-40
2023/08/10 15:33:42;;;;;;;6.75;4.15;;;23.30;1.00;;;;;;20823043;28;20025;-40
2023/08/10 15:43:43;;;;;;;8.48;5.53;;;23.40;1.00;;;;;;20813472;28;20053;-41
2023/08/10 15:53:44;;;;;;;4.45;3.22;;;23.40;1.00;;;;;;20844439;28;20112;-40
2023/08/10 16:03:44;;;;;;;4.00;2.85;;;23.40;1.00;;;;;;20866013;28;20079;-41
2023/08/10 16:13:45;;;;;;;4.70;2.90;;;23.20;1.00;;;;;;20862115;28;20048;-41
2023/08/10 16:23:46;;;;;;;5.15;3.78;;;23.20;1.00;;;;;;20866645;28;20530;-41
2023/08/10 16:33:46;;;;;;;5.83;3.60;;;23.20;1.00;;;;;;20866647;28;20127;-41
2023/08/10 16:43:47;;;;;;;4.32;3.20;;;23.10;1.00;;;;;;20863154;28;20045;-41
2023/08/10 16:53:47;;;;;;;5.90;3.63;;;22.80;1.00;;;;;;20866184;28;20036;-41
2023/08/10 17:03:48;;;;;;;5.78;3.85;;;22.70;1.00;;;;;;20862487;28;20037;-40
2023/08/10 17:13:49;;;;;;;7.30;3.67;;;22.60;1.00;;;;;;20863095;28;20041;-41
2023/08/10 17:23:50;;;;;;;3.80;2.80;;;22.60;1.00;;;;;;20864157;28;20508;-41
2023/08/10 17:33:50;;;;;;;4.22;3.35;;;22.40;1.00;;;;;;20861753;28;20076;-40
2023/08/10 17:43:51;;;;;;;4.63;2.25;;;22.30;1.00;;;;;;20861583;28;21483;-40
2023/08/10 17:53:52;;;;;;;5.18;2.92;;;22.10;1.00;;;;;;20862844;28;20041;-41
2023/08/10 18:03:52;;;;;;;4.72;2.50;;;22.00;1.00;;;;;;20859338;28;20069;-41
2023/08/10 18:13:53;;;;;;;6.93;2.38;;;21.80;1.00;;;;;;20857322;28;20290;-40
2023/08/10 18:23:53;;;;;;;3.65;2.45;;;21.80;1.00;;;;;;20863964;28;20499;-40
2023/08/10 18:33:54;;;;;;;3.97;2.42;;;21.60;1.00;;;;;;20880374;28;20087;-40
2023/08/10 18:43:55;;;;;;;3.58;2.25;;;21.40;1.00;;;;;;20878398;28;20044;-41
2023/08/10 18:53:56;;;;;;;4.35;3.20;;;21.30;1.00;;;;;;20873728;28;20041;-40
2023/08/10 19:03:57;;;;;;;4.72;2.90;;;21.10;1.00;;;;;;20870360;28;20639;-40
2023/08/10 19:13:58;;;;;;;3.78;2.55;;;20.80;1.00;;;;;;20871872;28;20483;-40
2023/08/10 19:23:58;;;;;;;5.38;3.63;;;20.60;1.00;;;;;;20876447;28;20051;-40
2023/08/10 19:33:59;;;;;;;5.68;3.75;;;20.30;1.00;;;;;;20842719;28;20037;-40
2023/08/10 19:43:59;;;;;;;5.27;3.33;;;20.10;1.00;;;;;;20849977;28;20296;-40
2023/08/10 19:54:00;;;;;;;6.07;3.80;;;19.90;1.00;;;;;;20811621;28;20424;-40
2023/08/10 20:04:01;;;;;;;5.10;3.85;;;19.70;1.00;;;;;;20822730;28;20044;-40
2023/08/10 20:14:02;;;;;;;10.30;4.43;;;19.50;1.00;;;;;;20825980;28;20099;-40
2023/08/10 20:24:04;;;;;;;4.85;3.42;;;19.30;1.00;;;;;;20833478;28;20045;-40
2023/08/10 20:34:04;;;;;;;5.10;4.00;;;19.20;1.00;;;;;;20822421;28;20719;-40
2023/08/10 20:44:05;;;;;;;4.55;3.60;;;19.10;1.00;;;;;;20823313;28;20044;-40
2023/08/10 20:54:06;;;;;;;7.50;4.22;;;19.00;1.00;;;;;;20825009;28;20041;-40
2023/08/10 21:04:07;;;;;;;5.80;3.60;;;18.80;1.00;;;;;;20799355;28;20326;-40
2023/08/10 21:14:08;;;;;;;5.40;3.80;;;18.70;1.00;;;;;;20828080;28;20045;-40
2023/08/10 21:24:10;;;;;;;7.63;4.25;;;18.50;1.00;;;;;;20838001;28;20048;-40
2023/08/10 21:34:10;;;;;;;8.60;4.00;;;18.40;1.00;;;;;;20837120;28;20037;-40
2023/08/10 21:44:11;;;;;;;7.17;5.20;;;18.40;1.00;;;;;;20844834;28;20537;-41
2023/08/10 21:54:12;;;;;;;8.27;4.82;;;18.30;1.00;;;;;;20834018;28;20048;-41
2023/08/10 22:04:12;;;;;;;7.18;5.32;;;18.20;1.00;;;;;;20840095;28;20052;-40
2023/08/10 22:14:13;;;;;;;6.40;5.07;;;18.20;1.00;;;;;;20838358;28;20131;-40
2023/08/10 22:24:13;;;;;;;8.20;5.45;;;18.10;1.00;;;;;;20848181;28;20465;-40
2023/08/10 22:34:14;;;;;;;8.00;4.95;;;18.00;1.00;;;;;;20836035;28;20162;-40
2023/08/10 22:44:14;;;;;;;11.70;5.50;;;17.80;1.00;;;;;;20839623;28;20604;-40
2023/08/10 22:54:15;;;;;;;6.60;4.85;;;17.80;1.00;;;;;;20837286;28;20053;-40
2023/08/10 23:04:16;;;;;;;6.72;5.13;;;17.60;1.00;;;;;;20834398;28;20037;-40
2023/08/10 23:14:16;;;;;;;6.55;4.85;;;17.60;1.00;;;;;;20839172;28;20116;-40
2023/08/10 23:24:17;;;;;;;7.15;4.07;;;17.70;1.00;;;;;;20836524;28;20033;-40
2023/08/10 23:34:18;;;;;;;7.00;4.50;;;17.80;1.00;;;;;;20831223;28;20037;-40
2023/08/10 23:44:19;;;;;;;6.85;4.82;;;17.90;1.00;;;;;;20832217;28;20599;-40
2023/08/10 23:54:20;;;;;;;5.25;3.90;;;17.90;1.00;;;;;;20833440;28;20417;-40
